sensor_id;sensor_type;location;lat;lon;timestamp;temperature;humidity
25622;DHT22;13487;39.360;22.962;2022-11-15T00:00:54;14.60;99.90
25622;DHT22;13487;39.360;22.962;2022-11-15T00:03:22;14.60;99.90
25622;DHT22;13487;39.360;22.962;2022-11-15T00:05:49;14.50;99.90
25622;DHT22;13487;39.360;22.962;2022-11-15T00:08:14;14.60;99.90
25622;DHT22;13487;39.360;22.962;2022-11-15T00:10:40;14.50;99.90
25622;DHT22;13487;39.360;22.962;2022-11-15T00:13:11;14.60;99.90
25622;DHT22;13487;39.360;22.962;2022-11-15T00:15:41;14.50;99.90
25622;DHT22;13487;39.360;22.962;2022-11-15T00:18:12;14.60;99.90
25622;DHT22;13487;39.360;22.962;2022-11-15T00:20:38;14.50;99.90
25622;DHT22;13487;39.360;22.962;2022-11-15T00:23:05;14.40;99.90
25622;DHT22;13487;39.360;22.962;2022-11-15T00:25:31;14.50;99.90
25622;DHT22;13487;39.360;22.962;2022-11-15T00:27:58;14.50;99.90
25622;DHT22;13487;39.360;22.962;2022-11-15T00:30:25;14.50;99.90
25622;DHT22;13487;39.360;22.962;2022-11-15T00:32:51;14.50;99.90
25622;DHT22;13487;39.360;22.962;2022-11-15T00:35:17;14.40;99.90
25622;DHT22;13487;39.360;22.962;2022-11-15T00:37:43;14.40;99.90
25622;DHT22;13487;39.360;22.962;2022-11-15T00:40:10;14.40;99.90
25622;DHT22;13487;39.360;22.962;2022-11-15T00:42:36;14.40;99.90
25622;DHT22;13487;39.360;22.962;2022-11-15T00:45:02;14.40;99.90
25622;DHT22;13487;39.360;22.962;2022-11-15T00:47:28;14.40;99.90
25622;DHT22;13487;39.360;22.962;2022-11-15T00:49:53;14.40;99.90
25622;DHT22;13487;39.360;22.962;2022-11-15T00:52:19;14.50;99.90
25622;DHT22;13487;39.360;22.962;2022-11-15T00:54:45;14.60;99.90
25622;DHT22;13487;39.360;22.962;2022-11-15T00:57:11;14.50;99.90
25622;DHT22;13487;39.360;22.962;2022-11-15T00:59:36;14.40;99.90
25622;DHT22;13487;39.360;22.962;2022-11-15T01:02:02;14.30;99.90
25622;DHT22;13487;39.360;22.962;2022-11-15T01:04:28;14.30;99.90
25622;DHT22;13487;39.360;22.962;2022-11-15T01:06:54;14.20;99.90
25622;DHT22;13487;39.360;22.962;2022-11-15T01:09:19;14.20;99.90
25622;DHT22;13487;39.360;22.962;2022-11-15T01:11:45;14.20;99.90
25622;DHT22;13487;39.360;22.962;2022-11-15T01:14:11;14.30;99.90
25622;DHT22;13487;39.360;22.962;2022-11-15T01:16:37;14.30;99.90
25622;DHT22;13487;39.360;22.962;2022-11-15T01:19:03;14.20;99.90
25622;DHT22;13487;39.360;22.962;2022-11-15T01:21:29;14.10;99.90
25622;DHT22;13487;39.360;22.962;2022-11-15T01:23:56;14.10;99.90
25622;DHT22;13487;39.360;22.962;2022-11-15T01:26:22;14.00;99.90
25622;DHT22;13487;39.360;22.962;2022-11-15T01:28:48;14.00;99.90
25622;DHT22;13487;39.360;22.962;2022-11-15T01:31:17;14.00;99.90
25622;DHT22;13487;39.360;22.962;2022-11-15T01:33:43;14.00;99.90
25622;DHT22;13487;39.360;22.962;2022-11-15T01:36:15;14.00;99.90
25622;DHT22;13487;39.360;22.962;2022-11-15T01:38:41;14.00;99.90
25622;DHT22;13487;39.360;22.962;2022-11-15T01:41:18;14.10;99.90
25622;DHT22;13487;39.360;22.962;2022-11-15T01:43:46;14.10;99.90
25622;DHT22;13487;39.360;22.962;2022-11-15T01:49:18;14.10;99.90
25622;DHT22;13487;39.360;22.962;2022-11-15T01:51:44;13.90;99.90
25622;DHT22;13487;39.360;22.962;2022-11-15T01:54:14;13.90;99.90
25622;DHT22;13487;39.360;22.962;2022-11-15T01:56:45;13.80;99.90
25622;DHT22;13487;39.360;22.962;2022-11-15T01:59:13;13.70;99.90
25622;DHT22;13487;39.360;22.962;2022-11-15T02:01:39;13.70;99.90
25622;DHT22;13487;39.360;22.962;2022-11-15T02:04:15;13.80;99.90
25622;DHT22;13487;39.360;22.962;2022-11-15T02:06:43;13.80;99.90
25622;DHT22;13487;39.360;22.962;2022-11-15T02:09:10;13.90;99.90
25622;DHT22;13487;39.360;22.962;2022-11-15T02:11:36;13.90;99.90
25622;DHT22;13487;39.360;22.962;2022-11-15T02:14:03;13.80;99.90
25622;DHT22;13487;39.360;22.962;2022-11-15T02:37:15;13.50;99.90
25622;DHT22;13487;39.360;22.962;2022-11-15T02:39:10;13.50;99.90
25622;DHT22;13487;39.360;22.962;2022-11-15T02:44:36;13.50;99.90
25622;DHT22;13487;39.360;22.962;2022-11-15T02:47:12;13.40;99.90
25622;DHT22;13487;39.360;22.962;2022-11-15T02:49:57;13.40;99.90
25622;DHT22;13487;39.360;22.962;2022-11-15T02:52:24;13.30;99.90
25622;DHT22;13487;39.360;22.962;2022-11-15T02:54:56;13.20;99.90
25622;DHT22;13487;39.360;22.962;2022-11-15T02:57:51;13.20;99.90
25622;DHT22;13487;39.360;22.962;2022-11-15T03:00:18;13.30;99.90
25622;DHT22;13487;39.360;22.962;2022-11-15T03:08:26;13.00;99.90
25622;DHT22;13487;39.360;22.962;2022-11-15T03:11:07;13.00;99.90
25622;DHT22;13487;39.360;22.962;2022-11-15T03:13:36;13.00;99.90
25622;DHT22;13487;39.360;22.962;2022-11-15T03:16:09;12.90;99.90
25622;DHT22;13487;39.360;22.962;2022-11-15T03:18:42;12.90;99.90
25622;DHT22;13487;39.360;22.962;2022-11-15T03:21:11;13.00;99.90
25622;DHT22;13487;39.360;22.962;2022-11-15T03:23:39;13.00;99.90
25622;DHT22;13487;39.360;22.962;2022-11-15T03:26:09;12.90;99.90
25622;DHT22;13487;39.360;22.962;2022-11-15T03:28:43;12.80;99.90
25622;DHT22;13487;39.360;22.962;2022-11-15T03:31:12;12.70;99.90
25622;DHT22;13487;39.360;22.962;2022-11-15T03:33:59;12.70;99.90
25622;DHT22;13487;39.360;22.962;2022-11-15T03:36:27;12.80;99.90
25622;DHT22;13487;39.360;22.962;2022-11-15T03:38:55;12.80;99.90
25622;DHT22;13487;39.360;22.962;2022-11-15T03:41:43;12.90;99.90
25622;DHT22;13487;39.360;22.962;2022-11-15T03:46:54;12.80;99.90
25622;DHT22;13487;39.360;22.962;2022-11-15T03:49:34;12.70;99.90
25622;DHT22;13487;39.360;22.962;2022-11-15T03:52:02;12.60;99.90
25622;DHT22;13487;39.360;22.962;2022-11-15T03:54:29;12.60;99.90
25622;DHT22;13487;39.360;22.962;2022-11-15T03:56:55;12.60;99.90
25622;DHT22;13487;39.360;22.962;2022-11-15T03:59:22;12.50;99.90
25622;DHT22;13487;39.360;22.962;2022-11-15T04:01:47;12.40;99.90
25622;DHT22;13487;39.360;22.962;2022-11-15T04:04:13;12.30;99.90
25622;DHT22;13487;39.360;22.962;2022-11-15T04:06:39;12.40;99.90
25622;DHT22;13487;39.360;22.962;2022-11-15T04:09:05;12.40;99.90
25622;DHT22;13487;39.360;22.962;2022-11-15T04:11:30;12.40;99.90
25622;DHT22;13487;39.360;22.962;2022-11-15T04:13:56;12.40;99.90
25622;DHT22;13487;39.360;22.962;2022-11-15T04:16:22;12.40;99.90
25622;DHT22;13487;39.360;22.962;2022-11-15T04:18:47;12.40;99.90
25622;DHT22;13487;39.360;22.962;2022-11-15T04:21:33;12.40;99.90
25622;DHT22;13487;39.360;22.962;2022-11-15T04:24:17;12.40;99.90
25622;DHT22;13487;39.360;22.962;2022-11-15T04:26:43;12.50;99.90
25622;DHT22;13487;39.360;22.962;2022-11-15T04:29:09;12.60;99.90
25622;DHT22;13487;39.360;22.962;2022-11-15T04:31:53;12.60;99.90
25622;DHT22;13487;39.360;22.962;2022-11-15T04:34:19;12.60;99.90
25622;DHT22;13487;39.360;22.962;2022-11-15T04:36:44;12.40;99.90
25622;DHT22;13487;39.360;22.962;2022-11-15T04:39:29;12.40;99.90
25622;DHT22;13487;39.360;22.962;2022-11-15T04:41:54;12.30;99.90
25622;DHT22;13487;39.360;22.962;2022-11-15T04:44:20;12.30;99.90
25622;DHT22;13487;39.360;22.962;2022-11-15T04:46:46;12.30;99.90
25622;DHT22;13487;39.360;22.962;2022-11-15T04:49:11;12.40;99.90
25622;DHT22;13487;39.360;22.962;2022-11-15T04:51:37;12.40;99.90
25622;DHT22;13487;39.360;22.962;2022-11-15T04:54:03;12.40;99.90
25622;DHT22;13487;39.360;22.962;2022-11-15T04:56:29;12.50;99.90
25622;DHT22;13487;39.360;22.962;2022-11-15T04:58:54;12.50;99.90
25622;DHT22;13487;39.360;22.962;2022-11-15T05:01:20;12.50;99.90
25622;DHT22;13487;39.360;22.962;2022-11-15T05:03:46;12.60;99.90
25622;DHT22;13487;39.360;22.962;2022-11-15T05:06:30;12.60;99.90
25622;DHT22;13487;39.360;22.962;2022-11-15T05:08:56;12.50;99.90
25622;DHT22;13487;39.360;22.962;2022-11-15T05:11:22;12.50;99.90
25622;DHT22;13487;39.360;22.962;2022-11-15T05:13:48;12.50;99.90
25622;DHT22;13487;39.360;22.962;2022-11-15T05:16:14;12.50;99.90
25622;DHT22;13487;39.360;22.962;2022-11-15T05:18:40;12.50;99.90
25622;DHT22;13487;39.360;22.962;2022-11-15T05:21:08;12.50;99.90
25622;DHT22;13487;39.360;22.962;2022-11-15T05:23:35;12.40;99.90
25622;DHT22;13487;39.360;22.962;2022-11-15T05:26:01;12.50;99.90
25622;DHT22;13487;39.360;22.962;2022-11-15T05:28:27;12.50;99.90
25622;DHT22;13487;39.360;22.962;2022-11-15T05:31:10;12.50;99.90
25622;DHT22;13487;39.360;22.962;2022-11-15T05:33:38;12.50;99.90
25622;DHT22;13487;39.360;22.962;2022-11-15T05:38:41;12.50;99.90
25622;DHT22;13487;39.360;22.962;2022-11-15T05:41:07;12.60;99.90
25622;DHT22;13487;39.360;22.962;2022-11-15T05:43:35;12.60;99.90
25622;DHT22;13487;39.360;22.962;2022-11-15T05:46:02;12.50;99.90
25622;DHT22;13487;39.360;22.962;2022-11-15T05:48:29;12.60;99.90
25622;DHT22;13487;39.360;22.962;2022-11-15T05:50:55;12.70;99.90
25622;DHT22;13487;39.360;22.962;2022-11-15T05:53:23;12.80;99.90
25622;DHT22;13487;39.360;22.962;2022-11-15T05:55:50;12.80;99.90
25622;DHT22;13487;39.360;22.962;2022-11-15T05:58:17;12.90;99.90
25622;DHT22;13487;39.360;22.962;2022-11-15T06:00:44;13.00;99.90
25622;DHT22;13487;39.360;22.962;2022-11-15T06:03:10;13.00;99.90
25622;DHT22;13487;39.360;22.962;2022-11-15T06:05:36;12.90;99.90
25622;DHT22;13487;39.360;22.962;2022-11-15T06:08:02;13.00;99.90
25622;DHT22;13487;39.360;22.962;2022-11-15T06:10:28;13.00;99.90
25622;DHT22;13487;39.360;22.962;2022-11-15T06:13:02;13.10;99.90
25622;DHT22;13487;39.360;22.962;2022-11-15T06:15:28;13.10;99.90
25622;DHT22;13487;39.360;22.962;2022-11-15T06:17:56;13.20;99.90
25622;DHT22;13487;39.360;22.962;2022-11-15T06:20:26;13.20;99.90
25622;DHT22;13487;39.360;22.962;2022-11-15T06:23:00;13.30;99.90
25622;DHT22;13487;39.360;22.962;2022-11-15T06:25:29;13.30;99.90
25622;DHT22;13487;39.360;22.962;2022-11-15T06:27:57;13.20;99.90
25622;DHT22;13487;39.360;22.962;2022-11-15T06:30:25;13.20;99.90
25622;DHT22;13487;39.360;22.962;2022-11-15T06:32:57;13.30;99.90
25622;DHT22;13487;39.360;22.962;2022-11-15T06:35:23;13.50;99.90
25622;DHT22;13487;39.360;22.962;2022-11-15T06:37:49;13.50;99.90
25622;DHT22;13487;39.360;22.962;2022-11-15T06:40:15;13.50;99.90
25622;DHT22;13487;39.360;22.962;2022-11-15T06:42:41;13.50;99.90
25622;DHT22;13487;39.360;22.962;2022-11-15T06:45:07;13.60;99.90
25622;DHT22;13487;39.360;22.962;2022-11-15T06:47:33;13.60;99.90
25622;DHT22;13487;39.360;22.962;2022-11-15T06:49:58;13.70;99.90
25622;DHT22;13487;39.360;22.962;2022-11-15T06:52:24;13.70;99.90
25622;DHT22;13487;39.360;22.962;2022-11-15T06:54:50;13.70;99.90
25622;DHT22;13487;39.360;22.962;2022-11-15T06:57:16;13.80;99.90
25622;DHT22;13487;39.360;22.962;2022-11-15T06:59:41;13.70;99.90
25622;DHT22;13487;39.360;22.962;2022-11-15T07:02:12;13.70;99.90
25622;DHT22;13487;39.360;22.962;2022-11-15T07:04:38;13.90;99.90
25622;DHT22;13487;39.360;22.962;2022-11-15T07:07:04;14.00;99.90
25622;DHT22;13487;39.360;22.962;2022-11-15T07:09:30;14.10;99.90
25622;DHT22;13487;39.360;22.962;2022-11-15T07:11:55;14.10;99.90
25622;DHT22;13487;39.360;22.962;2022-11-15T07:14:21;14.10;99.90
25622;DHT22;13487;39.360;22.962;2022-11-15T07:16:47;14.20;99.90
25622;DHT22;13487;39.360;22.962;2022-11-15T07:19:13;14.20;99.90
25622;DHT22;13487;39.360;22.962;2022-11-15T07:21:38;14.20;99.90
25622;DHT22;13487;39.360;22.962;2022-11-15T07:24:04;14.30;99.90
25622;DHT22;13487;39.360;22.962;2022-11-15T07:26:30;14.40;99.90
25622;DHT22;13487;39.360;22.962;2022-11-15T07:28:56;14.40;99.90
25622;DHT22;13487;39.360;22.962;2022-11-15T07:31:22;14.50;99.90
25622;DHT22;13487;39.360;22.962;2022-11-15T07:33:48;14.60;99.90
25622;DHT22;13487;39.360;22.962;2022-11-15T07:36:13;14.70;99.90
25622;DHT22;13487;39.360;22.962;2022-11-15T07:38:39;14.80;99.90
25622;DHT22;13487;39.360;22.962;2022-11-15T07:41:05;14.80;99.90
25622;DHT22;13487;39.360;22.962;2022-11-15T07:43:32;14.90;99.90
25622;DHT22;13487;39.360;22.962;2022-11-15T07:46:07;14.90;99.90
25622;DHT22;13487;39.360;22.962;2022-11-15T07:48:35;14.90;99.90
25622;DHT22;13487;39.360;22.962;2022-11-15T07:51:01;15.00;99.90
25622;DHT22;13487;39.360;22.962;2022-11-15T07:53:27;15.00;99.90
25622;DHT22;13487;39.360;22.962;2022-11-15T07:55:53;15.10;99.90
25622;DHT22;13487;39.360;22.962;2022-11-15T07:58:19;15.20;99.90
25622;DHT22;13487;39.360;22.962;2022-11-15T08:00:45;15.20;99.90
25622;DHT22;13487;39.360;22.962;2022-11-15T08:03:12;15.30;99.90
25622;DHT22;13487;39.360;22.962;2022-11-15T08:05:39;15.20;99.90
25622;DHT22;13487;39.360;22.962;2022-11-15T08:08:06;15.10;99.90
25622;DHT22;13487;39.360;22.962;2022-11-15T08:10:33;15.20;99.90
25622;DHT22;13487;39.360;22.962;2022-11-15T08:13:10;15.50;99.90
25622;DHT22;13487;39.360;22.962;2022-11-15T08:15:36;15.60;99.90
25622;DHT22;13487;39.360;22.962;2022-11-15T08:18:10;15.50;99.90
25622;DHT22;13487;39.360;22.962;2022-11-15T08:20:37;15.40;99.90
25622;DHT22;13487;39.360;22.962;2022-11-15T08:23:04;15.50;99.90
25622;DHT22;13487;39.360;22.962;2022-11-15T08:25:31;15.50;99.90
25622;DHT22;13487;39.360;22.962;2022-11-15T08:28:00;15.70;99.90
25622;DHT22;13487;39.360;22.962;2022-11-15T08:30:27;15.90;99.90
25622;DHT22;13487;39.360;22.962;2022-11-15T08:32:53;15.90;99.90
25622;DHT22;13487;39.360;22.962;2022-11-15T08:35:20;15.90;99.90
25622;DHT22;13487;39.360;22.962;2022-11-15T08:37:46;16.00;99.90
25622;DHT22;13487;39.360;22.962;2022-11-15T08:40:12;16.10;99.90
25622;DHT22;13487;39.360;22.962;2022-11-15T08:42:39;16.20;99.90
25622;DHT22;13487;39.360;22.962;2022-11-15T08:45:07;16.20;99.90
25622;DHT22;13487;39.360;22.962;2022-11-15T08:47:33;16.30;99.90
25622;DHT22;13487;39.360;22.962;2022-11-15T08:49:59;16.30;99.90
25622;DHT22;13487;39.360;22.962;2022-11-15T08:52:25;16.20;99.90
25622;DHT22;13487;39.360;22.962;2022-11-15T08:54:50;16.20;99.90
25622;DHT22;13487;39.360;22.962;2022-11-15T08:57:16;16.40;99.90
25622;DHT22;13487;39.360;22.962;2022-11-15T08:59:42;16.40;99.90
25622;DHT22;13487;39.360;22.962;2022-11-15T09:02:12;16.30;99.90
25622;DHT22;13487;39.360;22.962;2022-11-15T09:04:43;16.30;99.90
25622;DHT22;13487;39.360;22.962;2022-11-15T09:07:10;16.40;99.90
25622;DHT22;13487;39.360;22.962;2022-11-15T09:09:37;16.40;99.90
25622;DHT22;13487;39.360;22.962;2022-11-15T09:12:03;16.50;99.90
25622;DHT22;13487;39.360;22.962;2022-11-15T09:14:30;16.50;99.90
25622;DHT22;13487;39.360;22.962;2022-11-15T09:16:55;16.70;99.90
25622;DHT22;13487;39.360;22.962;2022-11-15T09:19:21;16.50;99.90
25622;DHT22;13487;39.360;22.962;2022-11-15T09:21:47;16.60;99.90
25622;DHT22;13487;39.360;22.962;2022-11-15T09:24:13;16.50;99.90
25622;DHT22;13487;39.360;22.962;2022-11-15T09:26:39;16.60;99.90
25622;DHT22;13487;39.360;22.962;2022-11-15T09:29:05;16.70;99.90
25622;DHT22;13487;39.360;22.962;2022-11-15T09:31:31;16.50;99.90
25622;DHT22;13487;39.360;22.962;2022-11-15T09:33:56;16.60;99.90
25622;DHT22;13487;39.360;22.962;2022-11-15T09:36:22;16.40;99.90
25622;DHT22;13487;39.360;22.962;2022-11-15T09:38:48;16.50;99.90
25622;DHT22;13487;39.360;22.962;2022-11-15T09:41:19;16.50;99.90
25622;DHT22;13487;39.360;22.962;2022-11-15T09:49:21;16.50;99.90
25622;DHT22;13487;39.360;22.962;2022-11-15T09:51:50;16.50;99.90
25622;DHT22;13487;39.360;22.962;2022-11-15T09:54:27;16.50;99.90
25622;DHT22;13487;39.360;22.962;2022-11-15T09:56:56;16.60;99.90
25622;DHT22;13487;39.360;22.962;2022-11-15T10:05:13;16.90;99.90
25622;DHT22;13487;39.360;22.962;2022-11-15T10:08:03;17.00;99.90
25622;DHT22;13487;39.360;22.962;2022-11-15T10:10:49;17.10;99.90
25622;DHT22;13487;39.360;22.962;2022-11-15T10:13:22;17.00;99.90
25622;DHT22;13487;39.360;22.962;2022-11-15T10:15:49;17.10;99.90
25622;DHT22;13487;39.360;22.962;2022-11-15T10:21:17;17.10;99.90
25622;DHT22;13487;39.360;22.962;2022-11-15T10:23:43;17.10;99.90
25622;DHT22;13487;39.360;22.962;2022-11-15T10:26:14;17.00;99.90
25622;DHT22;13487;39.360;22.962;2022-11-15T10:28:40;17.00;99.90
25622;DHT22;13487;39.360;22.962;2022-11-15T10:31:23;17.10;99.90
25622;DHT22;13487;39.360;22.962;2022-11-15T10:33:49;17.10;99.90
25622;DHT22;13487;39.360;22.962;2022-11-15T10:36:17;17.30;99.90
25622;DHT22;13487;39.360;22.962;2022-11-15T10:46:34;17.70;99.90
25622;DHT22;13487;39.360;22.962;2022-11-15T10:49:30;18.00;99.90
25622;DHT22;13487;39.360;22.962;2022-11-15T10:54:52;17.70;99.90
25622;DHT22;13487;39.360;22.962;2022-11-15T10:57:26;17.80;99.90
25622;DHT22;13487;39.360;22.962;2022-11-15T11:08:31;18.30;99.90
25622;DHT22;13487;39.360;22.962;2022-11-15T11:10:58;18.10;99.90
25622;DHT22;13487;39.360;22.962;2022-11-15T11:13:27;17.60;99.90
25622;DHT22;13487;39.360;22.962;2022-11-15T11:18:54;17.80;99.90
25622;DHT22;13487;39.360;22.962;2022-11-15T11:33:10;19.00;99.90
25622;DHT22;13487;39.360;22.962;2022-11-15T11:39:44;18.40;99.90
25622;DHT22;13487;39.360;22.962;2022-11-15T11:41:56;18.70;99.90
25622;DHT22;13487;39.360;22.962;2022-11-15T11:44:39;18.70;99.90
25622;DHT22;13487;39.360;22.962;2022-11-15T11:47:15;18.50;99.90
25622;DHT22;13487;39.360;22.962;2022-11-15T11:49:51;18.40;99.90
25622;DHT22;13487;39.360;22.962;2022-11-15T12:00:21;18.50;99.90
25622;DHT22;13487;39.360;22.962;2022-11-15T12:03:01;18.50;99.90
25622;DHT22;13487;39.360;22.962;2022-11-15T12:05:44;18.50;99.90
25622;DHT22;13487;39.360;22.962;2022-11-15T12:08:34;18.50;99.90
25622;DHT22;13487;39.360;22.962;2022-11-15T12:11:13;18.40;99.90
25622;DHT22;13487;39.360;22.962;2022-11-15T12:13:40;18.20;99.90
25622;DHT22;13487;39.360;22.962;2022-11-15T12:16:29;18.20;99.90
25622;DHT22;13487;39.360;22.962;2022-11-15T12:19:00;18.20;99.90
25622;DHT22;13487;39.360;22.962;2022-11-15T12:24:43;18.30;99.90
25622;DHT22;13487;39.360;22.962;2022-11-15T12:27:19;18.40;99.90
25622;DHT22;13487;39.360;22.962;2022-11-15T12:29:52;18.30;99.90
25622;DHT22;13487;39.360;22.962;2022-11-15T12:32:33;18.30;99.90
25622;DHT22;13487;39.360;22.962;2022-11-15T12:35:02;18.30;99.90
25622;DHT22;13487;39.360;22.962;2022-11-15T12:42:39;18.20;99.90
25622;DHT22;13487;39.360;22.962;2022-11-15T12:45:26;18.10;99.90
25622;DHT22;13487;39.360;22.962;2022-11-15T12:47:52;18.10;99.90
25622;DHT22;13487;39.360;22.962;2022-11-15T12:58:43;17.80;99.90
25622;DHT22;13487;39.360;22.962;2022-11-15T13:01:10;17.80;99.90
25622;DHT22;13487;39.360;22.962;2022-11-15T13:06:57;17.80;99.90
25622;DHT22;13487;39.360;22.962;2022-11-15T13:15:30;17.70;99.90
25622;DHT22;13487;39.360;22.962;2022-11-15T13:22:50;17.70;99.90
25622;DHT22;13487;39.360;22.962;2022-11-15T13:27:47;17.50;99.90
25622;DHT22;13487;39.360;22.962;2022-11-15T13:30:19;17.60;99.90
25622;DHT22;13487;39.360;22.962;2022-11-15T13:32:46;17.50;99.90
25622;DHT22;13487;39.360;22.962;2022-11-15T13:35:32;17.50;99.90
25622;DHT22;13487;39.360;22.962;2022-11-15T13:38:03;17.40;99.90
25622;DHT22;13487;39.360;22.962;2022-11-15T13:40:35;17.30;99.90
25622;DHT22;13487;39.360;22.962;2022-11-15T13:43:23;17.40;99.90
25622;DHT22;13487;39.360;22.962;2022-11-15T13:46:13;17.30;99.90
25622;DHT22;13487;39.360;22.962;2022-11-15T13:48:42;17.40;99.90
25622;DHT22;13487;39.360;22.962;2022-11-15T13:51:30;17.40;99.90
25622;DHT22;13487;39.360;22.962;2022-11-15T13:56:30;17.30;99.90
25622;DHT22;13487;39.360;22.962;2022-11-15T13:58:56;17.30;99.90
25622;DHT22;13487;39.360;22.962;2022-11-15T14:01:23;17.30;99.90
25622;DHT22;13487;39.360;22.962;2022-11-15T14:04:00;17.20;99.90
25622;DHT22;13487;39.360;22.962;2022-11-15T14:06:28;17.20;99.90
25622;DHT22;13487;39.360;22.962;2022-11-15T14:11:30;17.20;99.90
25622;DHT22;13487;39.360;22.962;2022-11-15T14:14:12;17.20;99.90
25622;DHT22;13487;39.360;22.962;2022-11-15T14:16:46;17.10;99.90
25622;DHT22;13487;39.360;22.962;2022-11-15T14:19:34;17.20;99.90
25622;DHT22;13487;39.360;22.962;2022-11-15T14:24:45;17.10;99.90
25622;DHT22;13487;39.360;22.962;2022-11-15T14:27:27;17.10;99.90
25622;DHT22;13487;39.360;22.962;2022-11-15T14:29:54;17.00;99.90
25622;DHT22;13487;39.360;22.962;2022-11-15T14:32:25;17.00;99.90
25622;DHT22;13487;39.360;22.962;2022-11-15T14:35:16;17.00;99.90
25622;DHT22;13487;39.360;22.962;2022-11-15T14:37:43;17.00;99.90
25622;DHT22;13487;39.360;22.962;2022-11-15T14:40:15;17.00;99.90
25622;DHT22;13487;39.360;22.962;2022-11-15T14:42:43;17.00;99.90
25622;DHT22;13487;39.360;22.962;2022-11-15T14:45:20;16.90;99.90
25622;DHT22;13487;39.360;22.962;2022-11-15T14:47:47;16.80;99.90
25622;DHT22;13487;39.360;22.962;2022-11-15T14:50:19;16.80;99.90
25622;DHT22;13487;39.360;22.962;2022-11-15T14:52:45;16.70;99.90
25622;DHT22;13487;39.360;22.962;2022-11-15T14:55:16;16.70;99.90
25622;DHT22;13487;39.360;22.962;2022-11-15T14:57:43;16.70;99.90
25622;DHT22;13487;39.360;22.962;2022-11-15T15:00:09;16.70;99.90
25622;DHT22;13487;39.360;22.962;2022-11-15T15:02:35;16.60;99.90
25622;DHT22;13487;39.360;22.962;2022-11-15T15:05:07;16.60;99.90
25622;DHT22;13487;39.360;22.962;2022-11-15T15:07:38;16.60;99.90
25622;DHT22;13487;39.360;22.962;2022-11-15T15:10:04;16.60;99.90
25622;DHT22;13487;39.360;22.962;2022-11-15T15:12:30;16.60;99.90
25622;DHT22;13487;39.360;22.962;2022-11-15T15:14:56;16.60;99.90
25622;DHT22;13487;39.360;22.962;2022-11-15T15:17:21;16.60;99.90
25622;DHT22;13487;39.360;22.962;2022-11-15T15:19:47;16.60;99.90
25622;DHT22;13487;39.360;22.962;2022-11-15T15:22:17;16.70;99.90
25622;DHT22;13487;39.360;22.962;2022-11-15T15:24:45;16.60;99.90
25622;DHT22;13487;39.360;22.962;2022-11-15T15:27:11;16.60;99.90
25622;DHT22;13487;39.360;22.962;2022-11-15T15:29:37;16.60;99.90
25622;DHT22;13487;39.360;22.962;2022-11-15T15:32:03;16.70;99.90
25622;DHT22;13487;39.360;22.962;2022-11-15T15:34:29;16.70;99.90
25622;DHT22;13487;39.360;22.962;2022-11-15T15:37:23;16.70;99.90
25622;DHT22;13487;39.360;22.962;2022-11-15T15:39:54;16.80;99.90
25622;DHT22;13487;39.360;22.962;2022-11-15T15:42:25;16.70;99.90
25622;DHT22;13487;39.360;22.962;2022-11-15T15:44:53;16.60;99.90
25622;DHT22;13487;39.360;22.962;2022-11-15T15:47:22;16.50;99.90
25622;DHT22;13487;39.360;22.962;2022-11-15T15:49:50;16.50;99.90
25622;DHT22;13487;39.360;22.962;2022-11-15T15:52:16;16.40;99.90
25622;DHT22;13487;39.360;22.962;2022-11-15T15:54:42;16.40;99.90
25622;DHT22;13487;39.360;22.962;2022-11-15T15:57:11;16.30;99.90
25622;DHT22;13487;39.360;22.962;2022-11-15T15:59:37;16.30;99.90
25622;DHT22;13487;39.360;22.962;2022-11-15T16:02:04;16.40;99.90
25622;DHT22;13487;39.360;22.962;2022-11-15T16:04:30;16.30;99.90
25622;DHT22;13487;39.360;22.962;2022-11-15T16:07:02;16.30;99.90
25622;DHT22;13487;39.360;22.962;2022-11-15T16:09:29;16.30;99.90
25622;DHT22;13487;39.360;22.962;2022-11-15T16:12:14;16.20;99.90
25622;DHT22;13487;39.360;22.962;2022-11-15T16:14:42;16.20;99.90
25622;DHT22;13487;39.360;22.962;2022-11-15T16:17:17;16.20;99.90
25622;DHT22;13487;39.360;22.962;2022-11-15T16:19:43;16.20;99.90
25622;DHT22;13487;39.360;22.962;2022-11-15T16:22:09;16.20;99.90
25622;DHT22;13487;39.360;22.962;2022-11-15T16:24:35;16.20;99.90
25622;DHT22;13487;39.360;22.962;2022-11-15T16:27:01;16.20;99.90
25622;DHT22;13487;39.360;22.962;2022-11-15T16:29:27;16.20;99.90
25622;DHT22;13487;39.360;22.962;2022-11-15T16:31:52;16.20;99.90
25622;DHT22;13487;39.360;22.962;2022-11-15T16:34:18;16.20;99.90
25622;DHT22;13487;39.360;22.962;2022-11-15T16:36:44;16.10;99.90
25622;DHT22;13487;39.360;22.962;2022-11-15T16:39:13;16.10;99.90
25622;DHT22;13487;39.360;22.962;2022-11-15T16:41:41;16.10;99.90
25622;DHT22;13487;39.360;22.962;2022-11-15T16:44:08;16.10;99.90
25622;DHT22;13487;39.360;22.962;2022-11-15T16:46:34;16.00;99.90
25622;DHT22;13487;39.360;22.962;2022-11-15T16:49:00;16.10;99.90
25622;DHT22;13487;39.360;22.962;2022-11-15T16:51:26;16.10;99.90
25622;DHT22;13487;39.360;22.962;2022-11-15T16:53:52;16.10;99.90
25622;DHT22;13487;39.360;22.962;2022-11-15T16:56:25;16.00;99.90
25622;DHT22;13487;39.360;22.962;2022-11-15T16:58:55;16.10;99.90
25622;DHT22;13487;39.360;22.962;2022-11-15T17:01:26;16.00;99.90
25622;DHT22;13487;39.360;22.962;2022-11-15T17:03:53;16.00;99.90
25622;DHT22;13487;39.360;22.962;2022-11-15T17:06:19;16.00;99.90
25622;DHT22;13487;39.360;22.962;2022-11-15T17:08:46;15.90;99.90
25622;DHT22;13487;39.360;22.962;2022-11-15T17:11:18;15.90;99.90
25622;DHT22;13487;39.360;22.962;2022-11-15T17:13:44;16.00;99.90
25622;DHT22;13487;39.360;22.962;2022-11-15T17:16:12;16.00;99.90
25622;DHT22;13487;39.360;22.962;2022-11-15T17:18:39;16.10;99.90
25622;DHT22;13487;39.360;22.962;2022-11-15T17:21:13;16.00;99.90
25622;DHT22;13487;39.360;22.962;2022-11-15T17:23:39;16.00;99.90
25622;DHT22;13487;39.360;22.962;2022-11-15T17:26:06;16.10;99.90
25622;DHT22;13487;39.360;22.962;2022-11-15T17:28:32;16.00;99.90
25622;DHT22;13487;39.360;22.962;2022-11-15T17:30:58;15.90;99.90
25622;DHT22;13487;39.360;22.962;2022-11-15T17:33:24;15.90;99.90
25622;DHT22;13487;39.360;22.962;2022-11-15T17:35:55;15.90;99.90
25622;DHT22;13487;39.360;22.962;2022-11-15T17:38:21;16.00;99.90
25622;DHT22;13487;39.360;22.962;2022-11-15T17:40:47;15.90;99.90
25622;DHT22;13487;39.360;22.962;2022-11-15T17:43:13;15.90;99.90
25622;DHT22;13487;39.360;22.962;2022-11-15T17:45:41;15.90;99.90